createdAt,value
2022-07-25T00:01:42.373Z,14.80
2022-07-25T00:04:11.099Z,14.05
2022-07-25T00:06:39.217Z,11.85
2022-07-25T00:09:05.725Z,14.88
2022-07-25T00:11:32.344Z,14.35
2022-07-25T00:13:59.649Z,18.40
2022-07-25T00:16:26.148Z,14.68
2022-07-25T00:18:52.677Z,15.95
2022-07-25T00:21:19.114Z,16.55
2022-07-25T00:23:45.556Z,16.30
2022-07-25T00:26:11.989Z,14.98
2022-07-25T00:28:38.478Z,15.05
2022-07-25T00:31:05.131Z,17.77
2022-07-25T00:33:31.667Z,16.45
2022-07-25T00:35:58.331Z,19.30
2022-07-25T00:38:24.773Z,13.55
2022-07-25T00:40:54.585Z,11.75
2022-07-25T00:43:22.428Z,11.55
2022-07-25T00:45:48.822Z,8.43
2022-07-25T00:48:15.281Z,7.95
2022-07-25T00:50:41.965Z,8.13
2022-07-25T00:53:09.551Z,7.55
2022-07-25T00:55:37.221Z,8.75
2022-07-25T00:58:04.028Z,8.75
2022-07-25T01:00:30.576Z,8.73
2022-07-25T01:02:57.434Z,7.88
2022-07-25T01:05:23.988Z,7.25
2022-07-25T01:07:51.908Z,9.27
2022-07-25T01:10:18.424Z,10.32
2022-07-25T01:12:55.133Z,7.28
2022-07-25T01:15:23.781Z,6.53
2022-07-25T01:17:51.014Z,7.35
2022-07-25T01:20:19.409Z,8.63
2022-07-25T01:22:46.315Z,10.10
2022-07-25T01:25:14.251Z,8.48
2022-07-25T01:27:42.095Z,8.30
2022-07-25T01:30:10.845Z,7.40
2022-07-25T01:32:37.610Z,8.98
2022-07-25T01:35:06.955Z,11.10
2022-07-25T01:37:34.078Z,9.98
2022-07-25T01:40:00.884Z,9.85
2022-07-25T01:42:28.107Z,7.55
2022-07-25T01:44:55.040Z,8.48
2022-07-25T01:47:21.701Z,7.55
2022-07-25T01:49:48.138Z,8.48
2022-07-25T01:52:14.679Z,9.35
2022-07-25T01:54:41.775Z,10.68
2022-07-25T01:57:10.451Z,9.48
2022-07-25T01:59:39.249Z,9.73
2022-07-25T02:02:07.142Z,9.45
2022-07-25T02:04:34.883Z,10.35
2022-07-25T02:07:01.526Z,7.88
2022-07-25T02:09:28.057Z,10.23
2022-07-25T02:11:54.526Z,8.15
2022-07-25T02:14:21.098Z,10.82
2022-07-25T02:16:47.763Z,9.18
2022-07-25T02:19:14.320Z,9.00
2022-07-25T02:21:41.043Z,9.13
2022-07-25T02:24:08.205Z,9.95
2022-07-25T02:26:35.039Z,12.32
2022-07-25T02:29:01.483Z,8.75
2022-07-25T02:31:27.944Z,9.93
2022-07-25T02:33:54.377Z,8.25
2022-07-25T02:36:21.157Z,7.95
2022-07-25T02:38:48.341Z,11.80
2022-07-25T02:41:14.778Z,10.07
2022-07-25T02:43:41.225Z,9.32
2022-07-25T02:46:07.738Z,8.27
2022-07-25T02:48:34.436Z,7.38
2022-07-25T02:51:00.938Z,9.15
2022-07-25T02:53:47.075Z,9.20
2022-07-25T02:56:14.142Z,8.40
2022-07-25T02:58:41.389Z,8.70
2022-07-25T03:01:08.450Z,7.78
2022-07-25T03:03:34.950Z,9.30
2022-07-25T03:06:01.656Z,11.20
2022-07-25T03:08:28.576Z,11.10
2022-07-25T03:10:55.107Z,7.75
2022-07-25T03:13:21.540Z,9.77
2022-07-25T03:15:48.650Z,9.40
2022-07-25T03:18:15.127Z,9.80
2022-07-25T03:20:41.651Z,7.70
2022-07-25T03:23:08.133Z,8.60
2022-07-25T03:25:34.550Z,9.02
2022-07-25T03:28:00.979Z,9.90
2022-07-25T03:30:27.537Z,8.55
2022-07-25T03:32:54.952Z,8.93
2022-07-25T03:35:21.766Z,9.13
2022-07-25T03:37:48.249Z,11.05
2022-07-25T03:40:16.008Z,9.13
2022-07-25T03:42:42.868Z,8.10
2022-07-25T03:45:10.004Z,10.05
2022-07-25T03:47:36.678Z,7.82
2022-07-25T03:50:03.550Z,10.23
2022-07-25T03:52:29.984Z,9.38
2022-07-25T03:54:56.449Z,9.65
2022-07-25T03:57:22.917Z,9.13
2022-07-25T03:59:49.328Z,9.48
2022-07-25T04:02:15.843Z,9.43
2022-07-25T04:04:43.389Z,11.55
2022-07-25T04:07:09.916Z,10.80
2022-07-25T04:09:37.199Z,9.90
2022-07-25T04:12:03.999Z,10.63
2022-07-25T04:14:30.417Z,9.90
2022-07-25T04:16:56.959Z,9.35
2022-07-25T04:19:23.544Z,8.95
2022-07-25T04:21:52.834Z,9.90
2022-07-25T04:24:19.287Z,9.18
2022-07-25T04:26:45.709Z,9.48
2022-07-25T04:29:12.159Z,10.13
2022-07-25T04:31:38.744Z,8.55
2022-07-25T04:34:05.705Z,8.27
2022-07-25T04:36:32.401Z,8.13
2022-07-25T04:38:58.834Z,10.77
2022-07-25T04:41:25.301Z,8.25
2022-07-25T04:43:51.812Z,8.60
2022-07-25T04:46:20.217Z,8.23
2022-07-25T04:48:47.340Z,8.23
2022-07-25T04:51:15.492Z,11.18
2022-07-25T04:53:42.070Z,9.48
2022-07-25T04:56:09.050Z,7.85
2022-07-25T04:58:35.617Z,8.45
2022-07-25T05:01:02.426Z,8.32
2022-07-25T05:03:28.973Z,8.25
2022-07-25T05:05:55.489Z,8.73
2022-07-25T05:08:21.911Z,8.95
2022-07-25T05:10:48.336Z,9.63
2022-07-25T05:13:14.869Z,10.18
2022-07-25T05:15:42.770Z,9.75
2022-07-25T05:18:09.333Z,10.10
2022-07-25T05:23:03.415Z,8.55
2022-07-25T05:25:29.865Z,12.20
2022-07-25T05:27:58.504Z,8.32
2022-07-25T05:30:25.289Z,8.02
2022-07-25T05:32:52.185Z,9.10
2022-07-25T05:35:18.683Z,7.88
2022-07-25T05:37:45.161Z,8.98
2022-07-25T05:40:11.686Z,9.38
2022-07-25T05:42:38.176Z,10.57
2022-07-25T05:45:05.435Z,8.80
2022-07-25T05:47:31.874Z,8.98
2022-07-25T05:49:58.409Z,9.45
2022-07-25T05:52:24.873Z,8.10
2022-07-25T05:54:51.444Z,8.18
2022-07-25T05:57:17.936Z,9.23
2022-07-25T05:59:44.384Z,8.27
2022-07-25T06:02:11.139Z,8.95
2022-07-25T06:04:37.852Z,8.10
2022-07-25T06:07:04.343Z,8.38
2022-07-25T06:09:31.855Z,7.68
2022-07-25T06:12:01.068Z,7.85
2022-07-25T06:14:28.907Z,8.95
2022-07-25T06:16:55.557Z,8.02
2022-07-25T06:19:22.369Z,10.38
2022-07-25T06:21:48.864Z,8.52
2022-07-25T06:24:15.523Z,10.07
2022-07-25T06:26:42.740Z,9.07
2022-07-25T06:29:09.233Z,8.85
2022-07-25T06:31:35.688Z,8.48
2022-07-25T06:34:02.202Z,7.72
2022-07-25T06:36:32.538Z,8.70
2022-07-25T06:38:59.728Z,9.57
2022-07-25T06:41:26.570Z,13.35
2022-07-25T06:43:53.060Z,15.05
2022-07-25T06:46:19.577Z,10.48
2022-07-25T06:48:46.071Z,11.75
2022-07-25T06:51:12.705Z,9.85
2022-07-25T06:53:39.132Z,8.40
2022-07-25T06:56:05.942Z,11.00
2022-07-25T06:58:32.373Z,8.45
2022-07-25T07:01:01.063Z,8.48
2022-07-25T07:03:28.037Z,9.85
2022-07-25T07:05:54.524Z,9.43
2022-07-25T07:08:21.003Z,7.93
2022-07-25T07:10:47.440Z,7.43
2022-07-25T07:13:23.871Z,7.13
2022-07-25T07:15:51.429Z,8.77
2022-07-25T07:18:19.272Z,8.93
2022-07-25T07:20:46.272Z,9.77
2022-07-25T07:23:16.601Z,9.05
2022-07-25T07:25:46.076Z,7.60
2022-07-25T07:28:12.738Z,7.78
2022-07-25T07:31:13.526Z,6.93
2022-07-25T07:33:25.606Z,8.00
2022-07-25T07:35:52.072Z,7.78
2022-07-25T07:38:18.485Z,5.97
2022-07-25T07:40:45.067Z,8.73
2022-07-25T07:43:11.529Z,8.00
2022-07-25T07:45:37.936Z,6.00
2022-07-25T07:48:06.263Z,8.18
2022-07-25T07:50:32.722Z,7.13
2022-07-25T07:52:59.311Z,6.57
2022-07-25T07:55:44.170Z,6.05
2022-07-25T07:58:16.182Z,7.25
2022-07-25T08:00:47.310Z,10.40
2022-07-25T08:03:17.145Z,7.68
2022-07-25T08:05:46.497Z,6.30
2022-07-25T08:08:14.722Z,5.90
2022-07-25T08:10:46.999Z,4.97
2022-07-25T08:13:16.017Z,6.90
2022-07-25T08:15:44.515Z,7.75
2022-07-25T08:18:17.782Z,7.80
2022-07-25T08:20:46.137Z,6.60
2022-07-25T08:23:13.427Z,7.75
2022-07-25T08:25:40.420Z,7.57
2022-07-25T08:28:07.476Z,7.63
2022-07-25T08:30:35.488Z,6.57
2022-07-25T08:33:04.403Z,7.00
2022-07-25T08:35:32.851Z,7.63
2022-07-25T08:38:00.547Z,8.40
2022-07-25T08:40:29.571Z,6.63
2022-07-25T08:42:56.600Z,7.93
2022-07-25T08:45:24.300Z,7.93
2022-07-25T08:47:52.709Z,6.32
2022-07-25T08:50:22.706Z,7.68
2022-07-25T08:52:50.578Z,7.05
2022-07-25T08:55:22.400Z,11.05
2022-07-25T08:57:53.072Z,8.98
2022-07-25T09:00:22.475Z,7.70
2022-07-25T09:03:00.503Z,10.48
2022-07-25T09:05:29.129Z,7.55
2022-07-25T09:07:56.990Z,5.65
2022-07-25T09:10:26.403Z,6.72
2022-07-25T09:13:05.076Z,7.53
2022-07-25T09:15:34.335Z,8.43
2022-07-25T09:18:05.745Z,10.27
2022-07-25T09:20:39.707Z,7.15
2022-07-25T09:23:07.115Z,9.75
2022-07-25T09:25:34.045Z,5.53
2022-07-25T09:28:15.015Z,6.53
2022-07-25T09:30:54.747Z,7.45
2022-07-25T09:33:23.103Z,5.60
2022-07-25T09:35:49.553Z,5.32
2022-07-25T09:38:17.378Z,5.07
2022-07-25T09:41:01.320Z,5.25
2022-07-25T09:43:38.192Z,8.27
2022-07-25T09:46:05.704Z,4.63
2022-07-25T09:48:32.906Z,5.72
2022-07-25T09:50:59.602Z,4.57
2022-07-25T09:53:26.619Z,5.18
2022-07-25T09:55:57.093Z,4.80
2022-07-25T09:58:28.092Z,4.85
2022-07-25T10:01:00.646Z,5.55
2022-07-25T10:03:46.960Z,4.43
2022-07-25T10:06:28.119Z,6.80
2022-07-25T10:08:54.844Z,3.97
2022-07-25T10:11:27.739Z,4.82
2022-07-25T10:13:54.907Z,3.75
2022-07-25T10:16:26.270Z,4.32
2022-07-25T10:18:58.476Z,5.10
2022-07-25T10:21:27.992Z,4.25
2022-07-25T10:24:04.295Z,4.40
2022-07-25T10:26:32.409Z,5.85
2022-07-25T10:28:59.122Z,9.18
2022-07-25T10:31:31.644Z,4.30
2022-07-25T10:34:02.136Z,5.68
2022-07-25T10:36:42.745Z,5.30
2022-07-25T10:39:11.856Z,6.50
2022-07-25T10:42:02.998Z,6.00
2022-07-25T10:44:49.209Z,4.75
2022-07-25T10:47:17.530Z,6.35
2022-07-25T10:50:14.485Z,4.30
2022-07-25T10:52:41.425Z,4.53
2022-07-25T10:55:08.411Z,3.83
2022-07-25T10:57:35.768Z,4.47
2022-07-25T11:00:07.034Z,5.93
2022-07-25T11:02:33.714Z,4.05
2022-07-25T11:05:03.013Z,10.45
2022-07-25T11:07:35.776Z,4.35
2022-07-25T11:10:05.639Z,4.75
2022-07-25T11:12:32.543Z,3.25
2022-07-25T11:15:05.155Z,3.58
2022-07-25T11:17:32.170Z,10.27
2022-07-25T11:20:01.383Z,5.25
2022-07-25T11:22:33.102Z,4.18
2022-07-25T11:25:00.635Z,3.47
2022-07-25T11:27:27.315Z,3.55
2022-07-25T11:30:05.763Z,3.72
2022-07-25T11:32:40.425Z,4.32
2022-07-25T11:35:07.808Z,2.83
2022-07-25T11:37:38.300Z,6.25
2022-07-25T11:40:06.820Z,5.75
2022-07-25T11:43:00.017Z,3.25
2022-07-25T11:45:33.354Z,5.15
2022-07-25T11:48:07.465Z,3.90
2022-07-25T11:50:36.533Z,3.72
2022-07-25T11:53:05.707Z,5.30
2022-07-25T11:55:36.258Z,7.57
2022-07-25T11:58:04.884Z,7.90
2022-07-25T12:00:35.410Z,6.28
2022-07-25T12:03:37.354Z,5.57
2022-07-25T12:06:11.650Z,5.70
2022-07-25T12:08:40.946Z,7.53
2022-07-25T12:11:18.354Z,5.95
2022-07-25T12:13:45.049Z,8.30
2022-07-25T12:16:11.505Z,7.00
2022-07-25T12:18:38.541Z,6.18
2022-07-25T12:21:05.415Z,3.90
2022-07-25T12:23:32.278Z,4.90
2022-07-25T12:25:58.779Z,4.55
2022-07-25T12:28:25.229Z,4.43
2022-07-25T12:30:56.482Z,3.85
2022-07-25T12:33:23.941Z,4.00
2022-07-25T12:35:51.765Z,5.13
2022-07-25T12:38:18.285Z,3.92
2022-07-25T12:40:44.764Z,4.32
2022-07-25T12:43:11.252Z,5.32
2022-07-25T12:45:37.796Z,8.38
2022-07-25T12:48:04.877Z,5.80
2022-07-25T12:50:31.517Z,5.13
2022-07-25T12:52:57.994Z,4.05
2022-07-25T12:55:24.528Z,4.15
2022-07-25T12:57:51.295Z,4.85
2022-07-25T13:00:20.924Z,6.07
2022-07-25T13:02:48.577Z,3.55
2022-07-25T13:05:15.168Z,3.78
2022-07-25T13:07:41.641Z,4.82
2022-07-25T13:10:08.696Z,6.13
2022-07-25T13:12:35.321Z,3.92
2022-07-25T13:15:02.269Z,4.38
2022-07-25T13:17:28.800Z,3.80
2022-07-25T13:19:56.371Z,4.05
2022-07-25T13:22:23.637Z,4.15
2022-07-25T13:24:50.363Z,4.63
2022-07-25T13:27:20.810Z,5.25
2022-07-25T13:29:48.334Z,5.53
2022-07-25T13:32:15.027Z,4.45
2022-07-25T13:34:41.462Z,2.65
2022-07-25T13:37:08.025Z,4.53
2022-07-25T13:39:35.599Z,6.35
2022-07-25T13:42:02.044Z,5.07
2022-07-25T13:44:28.516Z,5.32
2022-07-25T13:46:55.029Z,3.28
2022-07-25T13:49:21.744Z,3.15
2022-07-25T13:51:48.197Z,4.50
2022-07-25T13:54:14.654Z,3.92
2022-07-25T13:56:42.290Z,5.97
2022-07-25T13:59:09.190Z,6.05
2022-07-25T14:01:36.117Z,5.00
2022-07-25T14:04:02.837Z,3.20
2022-07-25T14:06:29.358Z,4.90
2022-07-25T14:08:55.793Z,3.45
2022-07-25T14:11:24.860Z,6.60
2022-07-25T14:16:22.422Z,5.15
2022-07-25T14:18:48.963Z,5.43
2022-07-25T14:21:15.370Z,5.45
2022-07-25T14:23:41.883Z,5.53
2022-07-25T14:26:08.412Z,6.20
2022-07-25T14:28:34.848Z,5.50
2022-07-25T14:31:01.377Z,4.75
2022-07-25T14:33:27.848Z,4.97
2022-07-25T14:35:54.311Z,7.65
2022-07-25T14:38:20.758Z,8.45
2022-07-25T14:40:47.877Z,5.65
2022-07-25T14:43:14.337Z,6.25
2022-07-25T14:45:41.629Z,6.22
2022-07-25T14:48:08.245Z,9.23
2022-07-25T14:50:34.650Z,7.90
2022-07-25T14:53:01.083Z,11.95
2022-07-25T14:55:27.664Z,6.55
2022-07-25T14:57:54.089Z,4.53
2022-07-25T15:00:22.779Z,6.38
2022-07-25T15:02:51.461Z,4.63
2022-07-25T15:05:17.926Z,5.05
2022-07-25T15:07:44.625Z,5.53
2022-07-25T15:10:11.090Z,4.47
2022-07-25T15:12:37.573Z,5.53
2022-07-25T15:15:04.772Z,4.50
2022-07-25T15:17:31.206Z,5.68
2022-07-25T15:19:58.074Z,5.55
2022-07-25T15:22:24.595Z,6.72
2022-07-25T15:25:22.452Z,8.07
2022-07-25T15:27:37.761Z,5.10
2022-07-25T15:30:05.954Z,3.85
2022-07-25T15:32:32.782Z,4.47
2022-07-25T15:34:59.325Z,5.88
2022-07-25T15:37:25.818Z,4.45
2022-07-25T15:39:52.264Z,5.75
2022-07-25T15:42:18.827Z,4.97
2022-07-25T15:44:45.236Z,5.10
2022-07-25T15:47:11.739Z,4.65
2022-07-25T15:49:38.266Z,3.58
2022-07-25T15:52:04.944Z,7.57
2022-07-25T15:54:31.469Z,4.13
2022-07-25T15:56:58.015Z,4.80
2022-07-25T15:59:24.563Z,4.50
2022-07-25T16:01:50.989Z,4.28
2022-07-25T16:04:17.496Z,4.65
2022-07-25T16:06:44.418Z,4.00
2022-07-25T16:09:12.425Z,4.60
2022-07-25T16:11:39.195Z,4.85
2022-07-25T16:14:05.828Z,8.70
2022-07-25T16:16:32.658Z,5.28
2022-07-25T16:18:59.158Z,3.58
2022-07-25T16:21:25.638Z,4.93
2022-07-25T16:23:52.377Z,4.00
2022-07-25T16:26:19.210Z,4.80
2022-07-25T16:28:47.474Z,4.03
2022-07-25T16:31:14.180Z,6.15
2022-07-25T16:33:40.868Z,6.10
2022-07-25T16:36:07.958Z,4.93
2022-07-25T16:38:34.761Z,9.30
2022-07-25T16:41:01.301Z,5.13
2022-07-25T16:43:27.709Z,4.63
2022-07-25T16:45:54.223Z,3.45
2022-07-25T16:48:20.648Z,5.45
2022-07-25T16:50:47.781Z,7.30
2022-07-25T16:53:14.312Z,5.82
2022-07-25T16:55:40.773Z,7.78
2022-07-25T16:58:07.289Z,17.17
2022-07-25T17:00:33.723Z,7.53
2022-07-25T17:03:00.980Z,5.78
2022-07-25T17:05:27.443Z,9.10
2022-07-25T17:07:59.573Z,8.00
2022-07-25T17:10:27.065Z,9.23
2022-07-25T17:12:53.579Z,5.55
2022-07-25T17:15:20.087Z,5.30
2022-07-25T17:17:46.559Z,3.38
2022-07-25T17:20:13.510Z,5.22
2022-07-25T17:22:39.981Z,6.30
2022-07-25T17:25:07.055Z,4.57
2022-07-25T17:27:33.549Z,3.97
2022-07-25T17:30:00.016Z,5.53
2022-07-25T17:32:29.930Z,4.72
2022-07-25T17:34:57.559Z,5.15
2022-07-25T17:37:24.281Z,2.83
2022-07-25T17:39:50.773Z,3.83
2022-07-25T17:42:22.062Z,3.75
2022-07-25T17:44:49.920Z,4.85
2022-07-25T17:47:17.116Z,2.13
2022-07-25T17:49:43.867Z,6.13
2022-07-25T17:52:13.277Z,3.97
2022-07-25T17:54:42.648Z,7.22
2022-07-25T17:57:09.472Z,5.40
2022-07-25T17:59:36.150Z,5.53
2022-07-25T18:02:03.118Z,2.08
2022-07-25T18:04:29.912Z,5.63
2022-07-25T18:06:56.756Z,4.68
2022-07-25T18:09:24.084Z,2.58
2022-07-25T18:11:51.052Z,6.90
2022-07-25T18:14:17.469Z,3.28
2022-07-25T18:16:45.355Z,2.90
2022-07-25T18:19:12.136Z,3.72
2022-07-25T18:21:38.844Z,4.28
2022-07-25T18:24:06.276Z,6.78
2022-07-25T18:26:33.800Z,2.85
2022-07-25T18:29:00.453Z,2.45
2022-07-25T18:31:27.010Z,3.17
2022-07-25T18:33:53.529Z,5.78
2022-07-25T18:36:20.001Z,8.07
2022-07-25T18:38:46.662Z,3.70
2022-07-25T18:41:28.517Z,3.35
2022-07-25T18:43:56.164Z,4.07
2022-07-25T18:46:22.882Z,3.33
2022-07-25T18:48:49.957Z,4.22
2022-07-25T18:51:16.577Z,2.38
2022-07-25T18:53:47.710Z,5.30
2022-07-25T18:56:15.641Z,7.47
2022-07-25T18:58:42.171Z,3.30
2022-07-25T19:01:09.296Z,6.25
2022-07-25T19:03:37.508Z,5.30
2022-07-25T19:06:04.967Z,5.55
2022-07-25T19:08:32.645Z,4.90
2022-07-25T19:10:59.177Z,2.22
2022-07-25T19:13:48.380Z,3.05
2022-07-25T19:16:12.368Z,4.78
2022-07-25T19:18:40.077Z,4.10
2022-07-25T19:21:07.209Z,2.33
2022-07-25T19:23:34.056Z,3.53
2022-07-25T19:26:01.998Z,2.75
2022-07-25T19:28:29.005Z,2.40
2022-07-25T19:30:56.592Z,3.08
2022-07-25T19:33:23.878Z,2.08
2022-07-25T19:35:50.404Z,4.22
2022-07-25T19:38:16.924Z,3.67
2022-07-25T19:40:43.421Z,4.15
2022-07-25T19:43:09.898Z,2.13
2022-07-25T19:45:38.934Z,3.20
2022-07-25T19:48:06.318Z,3.75
2022-07-25T19:50:32.844Z,3.78
2022-07-25T19:53:00.875Z,2.70
2022-07-25T19:55:28.052Z,2.35
2022-07-25T19:57:54.475Z,4.35
2022-07-25T20:00:21.138Z,5.28
2022-07-25T20:02:47.634Z,5.65
2022-07-25T20:05:14.863Z,2.08
2022-07-25T20:07:41.275Z,3.20
2022-07-25T20:10:08.662Z,5.18
2022-07-25T20:12:35.109Z,1.65
2022-07-25T20:15:01.989Z,3.55
2022-07-25T20:17:28.518Z,3.38
2022-07-25T20:19:55.008Z,3.20
2022-07-25T20:22:21.575Z,4.72
2022-07-25T20:24:48.018Z,3.47
2022-07-25T20:27:14.493Z,4.40
2022-07-25T20:29:40.959Z,2.38
2022-07-25T20:32:07.371Z,4.03
2022-07-25T20:34:33.812Z,2.80
2022-07-25T20:37:00.257Z,2.58
2022-07-25T20:39:28.693Z,4.65
2022-07-25T20:41:55.361Z,2.42
2022-07-25T20:44:21.885Z,2.80
2022-07-25T20:46:48.404Z,5.63
2022-07-25T20:49:14.919Z,3.92
2022-07-25T20:51:41.431Z,2.35
2022-07-25T20:54:08.089Z,4.28
2022-07-25T20:56:34.549Z,6.00
2022-07-25T20:59:00.985Z,2.60
2022-07-25T21:01:27.575Z,1.88
2022-07-25T21:03:54.051Z,3.55
2022-07-25T21:06:20.497Z,1.85
2022-07-25T21:11:20.348Z,3.13
2022-07-25T21:13:46.825Z,1.50
2022-07-25T21:16:13.367Z,4.20
2022-07-25T21:18:39.915Z,4.68
2022-07-25T21:21:11.756Z,4.80
2022-07-25T21:23:38.810Z,3.55
2022-07-25T21:26:05.770Z,1.92
2022-07-25T21:28:32.198Z,2.38
2022-07-25T21:30:58.706Z,4.75
2022-07-25T21:33:25.194Z,3.30
2022-07-25T21:35:53.702Z,1.70
2022-07-25T21:38:26.023Z,2.38
2022-07-25T21:40:54.586Z,3.28
2022-07-25T21:43:21.201Z,5.25
2022-07-25T21:45:48.191Z,2.90
2022-07-25T21:48:14.697Z,3.00
2022-07-25T21:50:43.935Z,1.83
2022-07-25T21:53:13.105Z,3.30
2022-07-25T21:55:40.466Z,2.42
2022-07-25T21:58:08.074Z,2.60
2022-07-25T22:00:40.036Z,2.53
2022-07-25T22:03:10.572Z,2.38
2022-07-25T22:05:36.981Z,1.20
2022-07-25T22:08:03.604Z,2.45
2022-07-25T22:10:30.106Z,4.60
2022-07-25T22:12:56.645Z,2.20
2022-07-25T22:15:23.174Z,2.08
2022-07-25T22:17:50.194Z,1.70
2022-07-25T22:20:18.477Z,4.63
2022-07-25T22:22:48.442Z,2.20
2022-07-25T22:25:16.148Z,3.30
2022-07-25T22:27:43.326Z,3.30
2022-07-25T22:30:16.177Z,2.58
2022-07-25T22:32:46.213Z,3.13
2022-07-25T22:35:12.841Z,2.63
2022-07-25T22:37:39.381Z,2.60
2022-07-25T22:40:06.302Z,3.75
2022-07-25T22:42:32.888Z,3.60
2022-07-25T22:44:59.305Z,2.85
2022-07-25T22:47:25.725Z,3.00
2022-07-25T22:49:52.159Z,1.42
2022-07-25T22:52:18.682Z,4.97
2022-07-25T22:54:45.217Z,2.42
2022-07-25T22:57:11.794Z,2.47
2022-07-25T22:59:38.316Z,2.45
2022-07-25T23:02:04.890Z,2.60
2022-07-25T23:04:31.375Z,3.80
2022-07-25T23:06:57.862Z,1.80
2022-07-25T23:09:24.337Z,2.78
2022-07-25T23:12:00.181Z,2.88
2022-07-25T23:14:26.600Z,2.38
2022-07-25T23:17:11.681Z,2.20
2022-07-25T23:19:38.110Z,4.35
2022-07-25T23:22:04.610Z,2.85
2022-07-25T23:24:34.398Z,2.45
2022-07-25T23:27:04.140Z,4.60
2022-07-25T23:29:30.563Z,3.75
2022-07-25T23:31:57.061Z,3.08
2022-07-25T23:34:23.636Z,3.88
2022-07-25T23:36:50.132Z,3.33
2022-07-25T23:39:16.748Z,3.75
2022-07-25T23:41:43.164Z,4.03
2022-07-25T23:44:10.948Z,3.10
2022-07-25T23:46:38.664Z,3.42
2022-07-25T23:49:06.503Z,2.65
2022-07-25T23:51:33.444Z,3.90
2022-07-25T23:53:59.895Z,2.63
2022-07-25T23:56:26.464Z,3.65
2022-07-25T23:58:53.352Z,2.80
